Time;durP1;ratioP1;P1;durP2;ratioP2;P2;SDS_P1;SDS_P2;PMS_P1;PMS_P2;Temp;Humidity;BMP_temperature;BMP_pressure;BME280_temperature;BME280_humidity;BME280_pressure;Samples;Min_cycle;Max_cycle;Signal;HPM_P1;HPM_P2
2021/08/29 00:04:29;;;;;;;13.95;4.85;;;;;;;14.18;95.35;101643.59;10098005;28;20184;-68
2021/08/29 00:09:26;;;;;;;6.68;3.72;;;;;;;14.20;95.21;101635.84;10101819;28;20478;-68
2021/08/29 00:14:22;;;;;;;7.70;3.60;;;;;;;14.21;95.34;101642.97;10103702;28;20513;-68
2021/08/29 00:19:19;;;;;;;8.75;4.13;;;;;;;14.14;95.17;101639.88;10100390;28;20077;-68
2021/08/29 00:24:15;;;;;;;7.15;3.10;;;;;;;14.16;95.11;101634.88;10102227;28;20149;-67
2021/08/29 00:29:11;;;;;;;7.65;3.20;;;;;;;14.07;95.69;101626.59;10100547;28;20055;-69
2021/08/29 00:34:08;;;;;;;5.93;3.05;;;;;;;14.12;95.03;101625.66;10099245;28;20145;-67
2021/08/29 00:39:04;;;;;;;6.20;3.00;;;;;;;14.13;94.77;101627.25;10100778;28;20047;-68
2021/08/29 00:44:02;;;;;;;10.43;3.20;;;;;;;14.22;94.94;101622.59;10096656;28;20047;-68
2021/08/29 00:48:59;;;;;;;7.22;3.17;;;;;;;14.24;94.86;101620.31;10097213;28;20646;-68
2021/08/29 00:53:55;;;;;;;5.80;2.80;;;;;;;14.23;94.61;101626.97;10107989;28;20530;-68
2021/08/29 00:58:52;;;;;;;8.18;2.88;;;;;;;14.25;94.64;101616.44;10104383;28;20504;-68
2021/08/29 01:03:54;;;;;;;8.35;3.28;;;;;;;14.24;94.50;101621.13;10109184;28;20047;-68
2021/08/29 01:08:58;;;;;;;10.07;3.63;;;;;;;14.20;94.68;101609.16;10100428;28;20461;-68
2021/08/29 01:14:03;;;;;;;6.10;3.15;;;;;;;14.19;94.37;101612.22;10113835;28;20658;-68
2021/08/29 01:19:05;;;;;;;10.40;3.80;;;;;;;14.11;95.24;101605.59;10111294;28;20046;-68
2021/08/29 01:24:09;;;;;;;7.97;3.35;;;;;;;14.16;95.19;101602.69;10102623;28;20066;-68
2021/08/29 01:29:08;;;;;;;8.00;3.70;;;;;;;14.13;95.29;101599.75;10110336;28;20046;-67
2021/08/29 01:34:07;;;;;;;8.45;3.78;;;;;;;14.07;95.43;101599.91;10106368;28;20047;-68
2021/08/29 01:39:05;;;;;;;10.95;3.75;;;;;;;14.08;95.53;101601.50;10109247;28;20580;-67
2021/08/29 01:44:02;;;;;;;8.73;3.10;;;;;;;14.06;95.41;101598.31;10108616;28;20077;-68
2021/08/29 01:49:01;;;;;;;7.68;3.83;;;;;;;14.07;95.22;101599.91;10109602;28;20445;-68
2021/08/29 01:53:58;;;;;;;9.35;4.05;;;;;;;13.99;95.85;101606.19;10105159;28;20042;-68
2021/08/29 01:58:54;;;;;;;8.60;3.60;;;;;;;14.01;95.95;101601.19;10098426;28;20074;-67
2021/08/29 02:03:51;;;;;;;6.93;2.80;;;;;;;13.97;95.78;101591.13;10092090;28;20106;-68
2021/08/29 02:09:00;;;;;;;8.18;3.35;;;;;;;13.98;95.88;101601.81;10108928;28;20390;-68
2021/08/29 02:14:01;;;;;;;5.50;3.50;;;;;;;13.98;96.46;101596.31;10096905;28;20457;-68
2021/08/29 02:18:58;;;;;;;6.00;2.78;;;;;;;13.99;96.38;101592.44;10100825;28;20050;-68
2021/08/29 02:23:58;;;;;;;10.50;4.00;;;;;;;13.95;96.45;101591.47;10106557;28;20047;-68
2021/08/29 02:28:56;;;;;;;6.05;4.13;;;;;;;13.91;96.73;101595.97;10106579;28;20051;-68
2021/08/29 02:33:52;;;;;;;7.80;3.22;;;;;;;13.94;96.69;101595.34;10103739;28;20077;-69
2021/08/29 02:38:52;;;;;;;6.57;3.53;;;;;;;13.98;96.42;101588.06;10101931;28;20043;-67
2021/08/29 02:43:50;;;;;;;9.32;3.78;;;;;;;13.99;96.72;101580.63;10095884;28;20147;-69
2021/08/29 02:48:48;;;;;;;6.53;3.83;;;;;;;13.99;96.50;101575.94;10095612;28;20490;-67
2021/08/29 02:53:45;;;;;;;7.90;4.22;;;;;;;13.99;96.79;101575.13;10103841;28;20137;-67
2021/08/29 02:58:44;;;;;;;7.30;3.33;;;;;;;13.95;96.06;101580.47;10103789;28;20089;-68
2021/08/29 03:03:41;;;;;;;5.88;2.80;;;;;;;13.94;96.56;101573.34;10109395;28;20078;-69
2021/08/29 03:08:38;;;;;;;7.82;3.55;;;;;;;13.96;96.67;101571.09;10104896;28;20101;-67
2021/08/29 03:13:35;;;;;;;6.97;3.08;;;;;;;13.92;96.48;101570.09;10106541;28;20086;-69
2021/08/29 03:18:33;;;;;;;8.32;3.75;;;;;;;13.90;96.85;101561.34;10102185;28;20077;-69
2021/08/29 03:23:30;;;;;;;8.95;3.17;;;;;;;13.92;96.72;101567.34;10109675;28;20102;-69
2021/08/29 03:28:27;;;;;;;5.57;3.00;;;;;;;13.92;97.44;101553.59;10105292;28;20050;-69
2021/08/29 03:33:25;;;;;;;7.82;3.67;;;;;;;14.00;97.25;101558.31;10104949;28;20101;-69
2021/08/29 03:38:22;;;;;;;7.18;2.90;;;;;;;13.99;96.94;101550.38;10099077;28;20074;-69
2021/08/29 03:43:19;;;;;;;5.18;2.80;;;;;;;14.00;96.58;101552.81;10100474;28;20117;-68
2021/08/29 03:48:15;;;;;;;5.20;2.90;;;;;;;13.97;96.41;101550.72;10104519;28;20078;-69
2021/08/29 03:53:13;;;;;;;5.90;3.20;;;;;;;13.97;96.75;101545.22;10101846;28;20047;-68
2021/08/29 03:58:10;;;;;;;6.78;3.65;;;;;;;13.93;96.97;101538.75;10094154;28;20043;-69
2021/08/29 04:03:07;;;;;;;7.43;4.35;;;;;;;13.85;96.67;101550.53;10106652;28;20078;-69
2021/08/29 04:08:05;;;;;;;5.60;3.38;;;;;;;13.88;97.06;101541.66;10099812;28;20093;-69
2021/08/29 04:13:02;;;;;;;7.20;3.83;;;;;;;13.89;97.07;101543.25;10094849;28;20086;-69
2021/08/29 04:17:58;;;;;;;9.48;4.47;;;;;;;13.90;97.22;101550.38;10105735;28;20065;-69
2021/08/29 04:22:55;;;;;;;9.07;3.83;;;;;;;13.93;97.75;101555.25;10102528;28;20054;-69
2021/08/29 04:27:51;;;;;;;6.63;4.60;;;;;;;13.92;97.81;101553.59;10105887;28;20074;-69
2021/08/29 04:32:49;;;;;;;7.45;5.22;;;;;;;13.90;97.61;101553.13;10108673;28;20090;-68
2021/08/29 04:37:45;;;;;;;7.88;5.32;;;;;;;13.90;97.74;101550.38;10111954;28;20095;-69
2021/08/29 04:42:42;;;;;;;7.25;4.93;;;;;;;13.89;97.53;101555.06;10111327;28;20047;-68
2021/08/29 04:47:38;;;;;;;8.13;4.78;;;;;;;13.89;97.63;101560.56;10104243;28;20460;-69
2021/08/29 04:52:35;;;;;;;6.85;4.80;;;;;;;13.92;97.54;101553.59;10112920;28;20078;-69
2021/08/29 04:57:31;;;;;;;8.15;4.75;;;;;;;13.88;98.10;101558.16;10110682;28;20085;-69
2021/08/29 05:02:27;;;;;;;6.68;4.05;;;;;;;13.92;98.48;101553.59;10115038;28;20085;-69
2021/08/29 05:07:24;;;;;;;8.20;4.55;;;;;;;13.91;98.26;101557.50;10098863;28;20051;-69
2021/08/29 05:12:21;;;;;;;4.90;3.72;;;;;;;13.94;98.02;101556.84;10110258;28;20474;-69
2021/08/29 05:17:17;;;;;;;7.28;4.55;;;;;;;13.87;98.62;101562.00;10104285;28;20457;-69
2021/08/29 05:22:15;;;;;;;6.00;4.47;;;;;;;13.89;98.82;101565.25;10112732;28;20113;-69
2021/08/29 05:27:11;;;;;;;7.07;4.70;;;;;;;13.89;98.82;101560.56;10108470;28;20493;-69
2021/08/29 05:32:08;;;;;;;10.55;5.20;;;;;;;13.92;98.84;101561.84;10110976;28;20509;-69
2021/08/29 05:37:04;;;;;;;6.93;4.97;;;;;;;13.94;99.10;101562.34;10108012;28;20141;-68
2021/08/29 05:42:00;;;;;;;9.50;4.00;;;;;;;13.90;99.19;101566.84;10099767;28;20070;-69
2021/08/29 05:46:59;;;;;;;6.78;4.70;;;;;;;14.01;99.41;101573.69;10107445;28;20481;-68
2021/08/29 05:51:56;;;;;;;6.97;4.22;;;;;;;14.08;99.10;101571.25;10101046;28;20739;-68
2021/08/29 05:56:52;;;;;;;8.48;5.85;;;;;;;14.05;98.85;101568.38;10108743;28;20070;-68
2021/08/29 06:01:48;;;;;;;8.75;4.18;;;;;;;14.03;98.97;101570.63;10108726;28;20085;-68
2021/08/29 06:06:45;;;;;;;7.95;5.10;;;;;;;14.06;98.95;101576.31;10099816;28;20409;-68
2021/08/29 06:11:42;;;;;;;7.80;4.72;;;;;;;14.09;99.36;101564.66;10103363;28;20054;-68
2021/08/29 06:16:39;;;;;;;6.15;4.50;;;;;;;14.15;99.46;101567.25;10110967;28;20134;-68
2021/08/29 06:21:35;;;;;;;7.75;3.80;;;;;;;14.19;99.46;101562.72;10098756;28;20081;-68
2021/08/29 06:26:32;;;;;;;5.93;3.10;;;;;;;14.21;99.61;101563.22;10110470;28;20409;-69
2021/08/29 06:31:28;;;;;;;6.00;3.28;;;;;;;14.26;99.43;101554.81;10106411;28;20509;-69
2021/08/29 06:36:25;;;;;;;4.65;3.10;;;;;;;14.23;99.82;101563.72;10105832;28;20141;-68
2021/08/29 06:41:22;;;;;;;7.13;3.88;;;;;;;14.26;99.36;101563.06;10101696;28;20054;-69
2021/08/29 06:46:19;;;;;;;4.97;3.08;;;;;;;14.30;99.70;101547.53;10102133;28;20043;-68
2021/08/29 06:51:15;;;;;;;9.10;4.28;;;;;;;14.33;99.49;101549.63;10104281;28;20652;-68
2021/08/29 06:56:12;;;;;;;9.52;5.45;;;;;;;14.35;99.72;101555.63;10103492;28;20050;-68
2021/08/29 07:01:08;;;;;;;5.18;3.65;;;;;;;14.37;100.00;101553.34;10110015;28;20047;-68
2021/08/29 07:06:06;;;;;;;10.38;5.07;;;;;;;14.42;99.76;101550.44;10109029;28;20039;-67
2021/08/29 07:11:03;;;;;;;5.82;3.75;;;;;;;14.41;99.95;101546.09;10097382;28;20476;-68
2021/08/29 07:15:59;;;;;;;5.25;2.70;;;;;;;14.47;100.00;101558.53;10091750;28;20098;-69
2021/08/29 07:20:56;;;;;;;4.28;2.83;;;;;;;14.53;100.00;101554.50;10102452;28;20043;-70
2021/08/29 07:25:52;;;;;;;3.67;2.28;;;;;;;14.58;100.00;101550.00;10100273;28;20513;-68
2021/08/29 07:30:49;;;;;;;4.07;2.42;;;;;;;14.68;99.80;101552.41;10104163;28;20047;-68
2021/08/29 07:35:45;;;;;;;3.42;1.85;;;;;;;14.69;99.94;101565.03;10099600;28;20083;-68
2021/08/29 07:40:42;;;;;;;4.10;1.77;;;;;;;14.78;100.00;101557.56;10105020;28;20055;-68
2021/08/29 07:45:38;;;;;;;3.25;1.67;;;;;;;14.84;100.00;101567.28;10102297;28;20047;-68
2021/08/29 07:50:35;;;;;;;5.03;2.00;;;;;;;14.90;100.00;101565.19;10101746;28;20089;-69
2021/08/29 07:55:31;;;;;;;5.82;2.08;;;;;;;14.93;100.00;101570.81;10085904;28;20075;-68
2021/08/29 08:00:28;;;;;;;5.30;2.53;;;;;;;15.00;100.00;101569.53;10101939;28;20047;-68
2021/08/29 08:05:25;;;;;;;3.80;1.80;;;;;;;15.07;100.00;101578.09;10102162;28;20053;-68
2021/08/29 08:10:23;;;;;;;4.45;2.25;;;;;;;15.13;100.00;101579.53;10104124;28;20074;-68
2021/08/29 08:15:20;;;;;;;3.97;1.80;;;;;;;15.19;100.00;101583.72;10103952;28;20039;-69
2021/08/29 08:20:16;;;;;;;4.00;1.88;;;;;;;15.22;100.00;101569.28;10100602;28;20055;-69
2021/08/29 08:25:13;;;;;;;3.72;2.13;;;;;;;15.28;100.00;101567.19;10105230;28;20043;-69
2021/08/29 08:30:10;;;;;;;6.82;1.80;;;;;;;15.41;100.00;101573.63;10103978;28;20449;-69
2021/08/29 08:35:07;;;;;;;4.30;2.58;;;;;;;15.49;100.00;101578.28;10105566;28;20082;-69
2021/08/29 08:40:05;;;;;;;3.63;1.95;;;;;;;15.55;100.00;101579.75;10104493;28;20105;-69
2021/08/29 08:45:02;;;;;;;4.53;2.10;;;;;;;15.59;100.00;101575.16;10102275;28;20047;-69
2021/08/29 08:50:01;;;;;;;3.50;2.15;;;;;;;15.64;99.55;101571.41;10098707;28;20085;-69
2021/08/29 08:55:01;;;;;;;4.93;2.85;;;;;;;15.64;99.90;101586.03;10099568;28;20038;-69
2021/08/29 08:59:57;;;;;;;4.25;2.10;;;;;;;15.82;99.69;101583.19;10100716;28;20284;-69
2021/08/29 09:04:54;;;;;;;5.28;2.35;;;;;;;15.93;100.00;101578.94;10100700;28;20469;-68
2021/08/29 09:09:50;;;;;;;3.75;2.00;;;;;;;16.03;100.00;101578.53;10104946;28;20097;-68
2021/08/29 09:14:49;;;;;;;3.92;2.10;;;;;;;16.09;100.00;101576.41;10099846;28;20046;-69
2021/08/29 09:19:46;;;;;;;4.25;2.60;;;;;;;16.13;99.91;101578.16;10103740;28;20089;-69
2021/08/29 09:24:50;;;;;;;2.92;1.70;;;;;;;16.12;99.67;101582.03;10113614;28;20133;-69
2021/08/29 09:29:46;;;;;;;3.38;1.63;;;;;;;16.14;100.00;101579.75;10107435;28;20074;-69
2021/08/29 09:34:56;;;;;;;2.40;1.30;;;;;;;16.17;100.00;101587.34;10097032;28;20066;-68
2021/08/29 09:40:12;;;;;;;1.67;0.88;;;;;;;16.21;100.00;101595.78;10111463;28;20493;-69
2021/08/29 09:45:09;;;;;;;5.35;1.42;;;;;;;16.28;100.00;101596.06;10107236;28;20678;-69
2021/08/29 09:50:06;;;;;;;3.00;1.35;;;;;;;16.32;100.00;101593.47;10107965;28;20466;-70
2021/08/29 09:55:03;;;;;;;2.58;1.20;;;;;;;16.24;99.74;101586.03;10109768;28;20046;-69
2021/08/29 09:59:59;;;;;;;3.22;1.00;;;;;;;16.14;99.47;101593.56;10109763;28;20533;-69
2021/08/29 10:05:16;;;;;;;2.55;1.05;;;;;;;16.14;97.78;101601.84;10102600;28;20513;-70
2021/08/29 10:10:24;;;;;;;2.78;1.10;;;;;;;16.18;97.56;101597.28;10105159;28;20047;-69
2021/08/29 10:15:20;;;;;;;2.30;1.05;;;;;;;16.22;97.67;101599.34;10108276;28;20130;-69
2021/08/29 10:20:24;;;;;;;5.95;1.33;;;;;;;16.31;99.01;101598.13;10100868;28;20528;-70
2021/08/29 10:25:23;;;;;;;3.22;1.77;;;;;;;16.27;98.26;101596.38;10110504;28;20050;-69
2021/08/29 10:30:20;;;;;;;4.00;2.00;;;;;;;16.30;95.28;101592.97;10103732;28;20485;-69
2021/08/29 10:35:17;;;;;;;4.25;2.80;;;;;;;16.52;96.13;101600.91;10105437;28;20098;-73
2021/08/29 10:40:14;;;;;;;5.43;3.05;;;;;;;16.54;96.66;101593.09;10105067;28;20681;-69
2021/08/29 10:45:12;;;;;;;6.38;3.58;;;;;;;16.49;95.74;101593.31;10104549;28;20043;-68
2021/08/29 10:50:12;;;;;;;6.57;3.38;;;;;;;16.46;93.40;101591.22;10106615;28;20053;-69
2021/08/29 10:55:18;;;;;;;6.25;4.47;;;;;;;16.52;94.19;101600.91;10101186;28;20134;-68
2021/08/29 11:00:26;;;;;;;7.63;4.72;;;;;;;16.57;94.83;101609.00;10107500;28;20043;-68
2021/08/29 11:05:28;;;;;;;7.05;5.03;;;;;;;16.78;93.01;101602.69;10105147;28;20051;-67
2021/08/29 11:10:37;;;;;;;20.40;6.37;;;;;;;16.66;95.56;101619.16;10096965;28;20171;-67
2021/08/29 11:15:39;;;;;;;8.88;4.97;;;;;;;16.45;92.71;101616.41;10094594;28;20047;-68
2021/08/29 11:20:40;;;;;;;10.27;5.15;;;;;;;16.45;88.65;101625.47;10096369;28;20047;-68
2021/08/29 11:25:36;;;;;;;10.13;4.25;;;;;;;16.68;88.41;101619.63;10098964;28;20050;-68
2021/08/29 11:30:35;;;;;;;7.15;4.40;;;;;;;16.81;86.15;101626.88;10106392;28;20046;-68
2021/08/29 11:35:33;;;;;;;6.57;4.60;;;;;;;17.09;89.88;101623.53;10103670;28;20050;-69
2021/08/29 11:40:53;;;;;;;8.02;4.60;;;;;;;17.07;86.56;101614.78;10095484;28;20084;-68
2021/08/29 11:46:00;;;;;;;9.70;4.72;;;;;;;17.08;85.21;101617.22;10099388;28;20077;-68
2021/08/29 11:50:57;;;;;;;5.53;3.40;;;;;;;17.19;84.46;101628.63;10106899;28;20515;-67
2021/08/29 11:56:06;;;;;;;6.00;2.90;;;;;;;17.16;81.01;101619.06;10100943;28;20489;-68
2021/08/29 12:01:04;;;;;;;8.15;3.60;;;;;;;17.10;86.71;101614.09;10104766;28;20047;-68
2021/08/29 12:06:05;;;;;;;6.75;2.60;;;;;;;17.07;88.01;101626.63;10102873;28;20437;-68
2021/08/29 12:11:02;;;;;;;5.47;2.92;;;;;;;16.88;86.24;101638.19;10105525;28;20497;-68
2021/08/29 12:16:05;;;;;;;6.45;2.53;;;;;;;16.79;89.58;101637.44;10099271;28;20109;-68
2021/08/29 12:21:05;;;;;;;5.45;2.70;;;;;;;16.63;87.69;101639.97;10097141;28;20400;-68
2021/08/29 12:26:05;;;;;;;5.65;3.13;;;;;;;16.70;89.35;101644.97;10104740;28;20042;-68
2021/08/29 12:31:03;;;;;;;6.68;4.20;;;;;;;16.55;90.15;101638.91;10103997;28;20149;-69
2021/08/29 12:36:10;;;;;;;5.63;4.03;;;;;;;16.49;87.65;101639.44;10099247;28;20086;-69
2021/08/29 12:41:06;;;;;;;7.13;4.47;;;;;;;16.62;89.04;101639.19;10105047;28;20109;-68
2021/08/29 12:46:04;;;;;;;7.03;4.45;;;;;;;16.58;88.81;101631.91;10096526;28;20113;-68
2021/08/29 12:51:05;;;;;;;7.05;4.90;;;;;;;16.54;87.82;101634.50;10112516;28;20046;-68
2021/08/29 12:56:02;;;;;;;8.85;5.85;;;;;;;16.57;90.34;101647.66;10109710;28;20047;-68
2021/08/29 13:01:00;;;;;;;11.18;6.00;;;;;;;16.45;85.48;101628.25;10110140;28;20043;-67
2021/08/29 13:06:05;;;;;;;9.38;6.68;;;;;;;16.51;89.50;101643.47;10106612;28;20046;-69
2021/08/29 13:11:03;;;;;;;13.52;8.77;;;;;;;16.42;86.99;101645.47;10105298;28;20203;-68
2021/08/29 13:16:00;;;;;;;14.57;9.43;;;;;;;16.37;83.87;101642.94;10104721;28;20098;-68
2021/08/29 13:20:56;;;;;;;14.40;9.18;;;;;;;16.45;84.48;101653.09;10111484;28;20506;-69
2021/08/29 13:25:56;;;;;;;14.63;9.25;;;;;;;16.51;86.76;101649.00;10099358;28;20066;-69
2021/08/29 13:31:08;;;;;;;11.15;7.57;;;;;;;16.46;84.17;101649.19;10107206;28;20067;-68
2021/08/29 13:36:07;;;;;;;11.98;8.13;;;;;;;16.54;87.21;101656.59;10103650;28;20035;-68
2021/08/29 13:41:08;;;;;;;14.32;9.30;;;;;;;16.46;84.88;101651.97;10105634;28;20139;-69
2021/08/29 13:46:07;;;;;;;18.05;10.85;;;;;;;16.47;83.64;101653.56;10109601;28;20038;-69
2021/08/29 13:51:04;;;;;;;13.10;9.52;;;;;;;16.55;87.96;101655.47;10105517;28;20043;-69
2021/08/29 13:56:02;;;;;;;17.13;10.82;;;;;;;16.56;90.72;101654.31;10104566;28;20133;-69
2021/08/29 14:00:58;;;;;;;16.55;11.55;;;;;;;16.48;89.03;101655.19;10106407;28;20070;-69
2021/08/29 14:05:55;;;;;;;17.80;12.25;;;;;;;16.53;91.13;101657.75;10098210;28;20483;-69
2021/08/29 14:10:52;;;;;;;20.23;12.32;;;;;;;16.52;92.24;101666.34;10107301;28;20520;-68
2021/08/29 14:15:50;;;;;;;15.90;12.32;;;;;;;16.58;93.19;101660.31;10108334;28;20066;-68
2021/08/29 14:20:47;;;;;;;21.00;13.35;;;;;;;16.62;93.45;101674.25;10109795;28;20560;-68
2021/08/29 14:25:44;;;;;;;22.52;14.27;;;;;;;16.62;92.69;101672.31;10108884;28;20047;-68
2021/08/29 14:30:41;;;;;;;21.55;14.80;;;;;;;16.53;93.22;101685.34;10110906;28;20097;-68
2021/08/29 14:35:38;;;;;;;20.98;14.88;;;;;;;16.62;94.56;101677.81;10109851;28;20043;-68
2021/08/29 14:40:35;;;;;;;21.00;13.88;;;;;;;16.48;89.24;101671.75;10108163;28;20501;-68
2021/08/29 14:45:31;;;;;;;20.85;14.75;;;;;;;16.54;90.64;101670.41;10102935;28;20050;-69
2021/08/29 14:50:30;;;;;;;21.27;14.82;;;;;;;16.45;91.42;101677.94;10103048;28;20051;-68
2021/08/29 14:55:26;;;;;;;25.17;16.38;;;;;;;16.38;90.93;101672.97;10098051;28;20573;-68
2021/08/29 15:00:23;;;;;;;22.40;15.02;;;;;;;16.47;91.63;101675.66;10107851;28;20690;-68
2021/08/29 15:05:20;;;;;;;23.10;15.93;;;;;;;16.46;90.92;101679.56;10102869;28;20051;-69
2021/08/29 15:10:19;;;;;;;21.60;15.40;;;;;;;16.54;91.35;101686.97;10107224;28;20055;-68
2021/08/29 15:15:15;;;;;;;23.85;16.20;;;;;;;16.52;93.74;101688.44;10102625;28;20134;-67
2021/08/29 15:20:12;;;;;;;24.45;16.92;;;;;;;16.45;93.40;101686.22;10103459;28;20073;-69
2021/08/29 15:25:09;;;;;;;23.75;14.75;;;;;;;16.43;93.29;101680.25;10106392;28;20074;-70
2021/08/29 15:30:06;;;;;;;24.90;17.40;;;;;;;16.50;93.19;101680.50;10099434;28;20046;-69
2021/08/29 15:35:07;;;;;;;23.73;16.55;;;;;;;16.48;93.93;101688.31;10102291;28;20047;-68
2021/08/29 15:40:04;;;;;;;20.80;15.73;;;;;;;16.36;90.37;101682.69;10101450;28;20043;-69
2021/08/29 15:45:01;;;;;;;22.17;16.00;;;;;;;16.46;91.09;101685.09;10090182;28;20054;-66
2021/08/29 15:49:58;;;;;;;22.65;16.00;;;;;;;16.44;89.88;101681.03;10080404;28;20042;-67
2021/08/29 15:54:55;;;;;;;19.77;14.95;;;;;;;16.55;91.06;101688.59;10081455;28;20586;-67
2021/08/29 15:59:51;;;;;;;22.15;14.95;;;;;;;16.61;91.27;101684.47;10091446;28;20070;-67
2021/08/29 16:04:48;;;;;;;27.15;16.45;;;;;;;16.56;92.69;101683.88;10097907;28;20091;-67
2021/08/29 16:09:44;;;;;;;22.92;15.77;;;;;;;16.53;92.55;101696.41;10092633;28;20043;-67
2021/08/29 16:14:40;;;;;;;20.63;16.38;;;;;;;16.47;92.90;101686.69;10088088;28;20127;-67
2021/08/29 16:19:37;;;;;;;23.48;15.63;;;;;;;16.44;91.56;101694.84;10093996;28;20047;-67
2021/08/29 16:24:34;;;;;;;22.90;16.23;;;;;;;16.44;90.57;101698.41;10103136;28;20051;-67
2021/08/29 16:29:30;;;;;;;28.48;16.85;;;;;;;16.45;92.00;101697.25;10106835;28;20046;-67
2021/08/29 16:34:27;;;;;;;22.00;16.52;;;;;;;16.42;92.37;101695.16;10107642;28;20062;-67
2021/08/29 16:39:23;;;;;;;24.77;17.02;;;;;;;16.39;91.96;101698.59;10097860;28;20202;-67
2021/08/29 16:44:20;;;;;;;26.52;16.23;;;;;;;16.33;89.29;101705.44;10108043;28;20938;-67
2021/08/29 16:49:16;;;;;;;24.10;15.63;;;;;;;16.29;89.50;101708.09;10101507;28;20062;-66
2021/08/29 16:54:13;;;;;;;24.90;16.27;;;;;;;16.24;88.16;101707.44;10092869;28;20054;-66
2021/08/29 16:59:09;;;;;;;21.40;14.63;;;;;;;16.27;89.49;101709.53;10093685;28;20130;-66
2021/08/29 17:04:06;;;;;;;24.15;15.90;;;;;;;16.25;89.73;101707.13;10095157;28;20109;-66
2021/08/29 17:09:03;;;;;;;20.75;14.73;;;;;;;16.25;89.71;101711.84;10095658;28;20109;-66
2021/08/29 17:14:01;;;;;;;26.10;16.27;;;;;;;16.31;90.22;101704.97;10089152;28;20043;-67
2021/08/29 17:18:58;;;;;;;27.75;19.15;;;;;;;16.39;92.05;101701.38;10091258;28;20058;-67
2021/08/29 17:23:54;;;;;;;21.92;16.15;;;;;;;16.34;91.59;101715.34;10096242;28;20071;-67
2021/08/29 17:28:51;;;;;;;25.60;17.63;;;;;;;16.37;91.05;101709.97;10098010;28;20497;-67
2021/08/29 17:33:47;;;;;;;24.98;15.90;;;;;;;16.35;91.75;101716.97;10095523;28;20106;-67
2021/08/29 17:38:44;;;;;;;21.90;15.05;;;;;;;16.33;92.26;101720.03;10097354;28;20126;-67
2021/08/29 17:43:41;;;;;;;24.17;15.02;;;;;;;16.31;92.22;101718.75;10081567;28;20043;-67
2021/08/29 17:48:37;;;;;;;21.35;14.48;;;;;;;16.29;92.71;101715.53;10084096;28;20130;-67
2021/08/29 17:53:34;;;;;;;25.20;15.07;;;;;;;16.31;92.65;101716.00;10089870;28;20129;-67
2021/08/29 17:58:30;;;;;;;21.27;13.95;;;;;;;16.25;93.63;101720.13;10079029;28;20063;-67
2021/08/29 18:03:27;;;;;;;20.75;14.30;;;;;;;16.26;93.75;101719.75;10084512;28;20129;-67
2021/08/29 18:08:25;;;;;;;25.15;15.20;;;;;;;16.23;93.93;101723.19;10078262;28;20082;-67
2021/08/29 18:13:23;;;;;;;20.05;15.30;;;;;;;16.19;94.18;101720.28;10086862;28;20584;-67
2021/08/29 18:18:19;;;;;;;20.30;14.90;;;;;;;16.18;94.32;101726.94;10092996;28;20074;-67
2021/08/29 18:23:16;;;;;;;18.65;13.55;;;;;;;16.16;94.53;101734.75;10081931;28;20043;-70
2021/08/29 18:28:14;;;;;;;18.23;13.38;;;;;;;16.10;94.33;101733.28;10097368;28;20151;-67
2021/08/29 18:33:10;;;;;;;18.67;13.52;;;;;;;16.07;94.33;101745.00;10089478;28;20075;-67
2021/08/29 18:38:07;;;;;;;17.67;13.63;;;;;;;16.06;94.39;101748.91;10086595;28;20093;-67
2021/08/29 18:43:05;;;;;;;19.70;14.07;;;;;;;16.06;94.32;101743.41;10082994;28;20496;-67
2021/08/29 18:48:02;;;;;;;23.40;13.38;;;;;;;16.01;94.74;101757.34;10081092;28;20101;-67
2021/08/29 18:52:59;;;;;;;21.83;14.38;;;;;;;16.02;94.46;101756.22;10097763;28;20133;-67
2021/08/29 18:57:55;;;;;;;23.65;13.50;;;;;;;16.03;94.37;101760.59;10084866;28;20074;-67
2021/08/29 19:02:53;;;;;;;21.15;14.13;;;;;;;16.00;94.56;101764.00;10089078;28;20096;-67
2021/08/29 19:07:50;;;;;;;19.13;13.70;;;;;;;15.97;94.49;101767.44;10075874;28;20051;-67
2021/08/29 19:12:48;;;;;;;18.13;12.75;;;;;;;15.94;93.97;101762.56;10083035;28;20086;-67
2021/08/29 19:17:46;;;;;;;18.75;11.85;;;;;;;15.91;94.23;101768.75;10084845;28;20082;-67
2021/08/29 19:22:47;;;;;;;19.75;12.45;;;;;;;15.90;94.29;101772.66;10094857;28;20511;-67
2021/08/29 19:27:45;;;;;;;17.67;12.43;;;;;;;15.91;94.34;101777.03;10093263;28;20066;-67
2021/08/29 19:32:42;;;;;;;18.15;12.75;;;;;;;15.92;94.20;101770.34;10075885;28;20050;-67
2021/08/29 19:37:39;;;;;;;19.35;12.57;;;;;;;15.91;94.27;101763.22;10087057;28;20068;-67
2021/08/29 19:42:36;;;;;;;18.70;12.77;;;;;;;15.86;94.10;101766.16;10087287;28;20043;-67
2021/08/29 19:47:33;;;;;;;21.60;13.18;;;;;;;15.85;93.76;101767.28;10084838;28;20043;-67
2021/08/29 19:52:30;;;;;;;24.40;15.27;;;;;;;15.73;93.85;101755.00;10089958;28;20122;-67
2021/08/29 19:57:26;;;;;;;16.52;12.13;;;;;;;15.71;93.83;101764.72;10087837;28;20038;-67
2021/08/29 20:02:23;;;;;;;20.20;12.75;;;;;;;15.65;93.99;101766.81;10086486;28;20043;-67
2021/08/29 20:07:19;;;;;;;19.80;13.35;;;;;;;15.62;93.93;101767.47;10087406;28;20684;-67
2021/08/29 20:12:16;;;;;;;18.48;13.35;;;;;;;15.52;93.87;101771.38;10078201;28;20126;-67
2021/08/29 20:17:12;;;;;;;17.70;12.15;;;;;;;15.55;93.91;101767.16;10089649;28;20039;-68
2021/08/29 20:22:09;;;;;;;20.35;13.93;;;;;;;15.58;93.76;101772.03;10079566;28;20162;-68
2021/08/29 20:27:05;;;;;;;19.80;13.60;;;;;;;15.50;94.15;101764.56;10075504;28;20094;-67
2021/08/29 20:32:02;;;;;;;22.17;14.20;;;;;;;15.49;94.45;101768.47;10081404;28;20481;-67
2021/08/29 20:36:59;;;;;;;21.70;14.68;;;;;;;15.48;94.95;101772.34;10088694;28;20043;-69
2021/08/29 20:41:56;;;;;;;20.02;14.18;;;;;;;15.55;94.81;101778.19;10098473;28;20105;-69
2021/08/29 20:46:52;;;;;;;21.67;13.30;;;;;;;15.62;94.60;101778.50;10105428;28;20405;-69
2021/08/29 20:51:49;;;;;;;22.60;14.38;;;;;;;15.60;94.71;101775.25;10105157;28;20512;-67
2021/08/29 20:56:45;;;;;;;19.40;14.13;;;;;;;15.61;94.83;101770.56;10102661;28;20149;-67
2021/08/29 21:01:42;;;;;;;21.70;15.45;;;;;;;15.66;95.13;101762.91;10103449;28;20055;-67
2021/08/29 21:06:39;;;;;;;20.27;13.77;;;;;;;15.66;95.01;101762.91;10102403;28;20102;-69
2021/08/29 21:11:35;;;;;;;25.25;15.73;;;;;;;15.64;94.79;101770.72;10106079;28;20051;-68
2021/08/29 21:16:32;;;;;;;23.65;15.18;;;;;;;15.67;94.61;101769.25;10093711;28;20054;-68
2021/08/29 21:21:28;;;;;;;22.40;14.65;;;;;;;15.65;94.77;101761.31;10106127;28;20162;-68
2021/08/29 21:26:25;;;;;;;24.52;17.17;;;;;;;15.65;94.89;101753.03;10090697;28;20139;-68
2021/08/29 21:31:21;;;;;;;22.40;15.05;;;;;;;15.62;94.60;101761.97;10106644;28;20153;-68
2021/08/29 21:36:18;;;;;;;21.27;15.85;;;;;;;15.59;94.67;101765.34;10102329;28;20081;-68
2021/08/29 21:41:14;;;;;;;21.85;16.08;;;;;;;15.52;95.03;101767.81;10102767;28;20154;-68
2021/08/29 21:46:10;;;;;;;22.05;15.52;;;;;;;15.49;95.10;101763.75;10106267;28;20138;-69
2021/08/29 21:51:07;;;;;;;25.80;16.77;;;;;;;15.48;95.21;101764.06;10109597;28;20046;-69
2021/08/29 21:56:04;;;;;;;26.63;18.23;;;;;;;15.44;95.25;101757.63;10100873;28;20486;-69
2021/08/29 22:01:01;;;;;;;31.00;18.15;;;;;;;15.44;95.55;101765.88;10107714;28;20070;-69
2021/08/29 22:05:58;;;;;;;21.88;15.57;;;;;;;15.47;95.69;101766.03;10096496;28;20062;-68
2021/08/29 22:10:56;;;;;;;26.17;15.73;;;;;;;15.48;95.77;101766.81;10104778;28;20089;-68
2021/08/29 22:15:52;;;;;;;27.38;16.98;;;;;;;15.50;95.94;101759.88;10095197;28;20088;-70
2021/08/29 22:20:49;;;;;;;27.42;17.27;;;;;;;15.49;95.75;101757.44;10099993;28;20134;-70
2021/08/29 22:25:45;;;;;;;30.48;16.90;;;;;;;15.45;95.86;101762.78;10112099;28;20063;-68
2021/08/29 22:30:42;;;;;;;21.23;16.67;;;;;;;15.47;96.28;101765.22;10103565;28;20162;-67
2021/08/29 22:35:38;;;;;;;25.17;17.08;;;;;;;15.43;96.26;101765.03;10109289;28;20050;-67